Terminal Aerodrome Forecast
Issued by NWS

Home | Current Version | Previous Version | Graphics & Text | Print | Product List | Glossary On
Versions: 1 2 3 4 5 6 7 8 9 10 11 12 13
000
FTUS43 KOAX 260520
TAFCDR
TAF
KCDR 260520Z 2606/2706 VRB03KT P6SM FEW200
     FM261200 25006KT P6SM BKN080
     FM261700 28014G22KT P6SM VCSH OVC080
     FM270100 01011KT P6SM OVC100=

USA.gov is the U.S. government's official web portal to all federal, state and local government web resources and services.